createdAt,value
2022-10-17T11:43:20.964Z,1231.88
2022-10-17T11:44:21.461Z,1288.13
2022-10-17T11:45:20.784Z,1456.88
2022-10-17T11:46:20.743Z,1383.75
2022-10-17T11:47:20.647Z,1434.38
2022-10-17T11:49:20.918Z,1648.13
2022-10-17T11:52:44.055Z,1743.75
2022-10-17T11:54:20.171Z,1816.88
2022-10-17T11:55:20.130Z,1805.63
2022-10-17T12:01:13.937Z,1777.50
2022-10-17T12:02:13.852Z,1839.38
2022-10-17T12:03:13.787Z,1749.38
2022-10-17T12:11:54.552Z,1873.13
2022-10-17T12:12:53.880Z,1833.75
2022-10-17T12:13:53.814Z,1839.38
2022-10-17T12:14:53.754Z,1833.75
2022-10-17T12:15:54.128Z,1771.88
2022-10-17T12:17:36.143Z,1743.75
2022-10-17T12:18:36.061Z,1867.50
2022-10-17T12:19:35.996Z,1850.63
2022-10-17T12:20:36.034Z,1800.00
2022-10-17T12:22:35.811Z,1828.13
2022-10-17T12:23:35.750Z,1636.88
2022-10-17T12:24:35.686Z,1603.13
2022-10-17T12:30:35.312Z,1687.50
2022-10-17T12:31:35.252Z,1704.38
2022-10-17T12:33:00.557Z,1659.38
2022-10-17T12:34:35.133Z,1698.75
2022-10-17T12:35:35.006Z,1591.88
2022-10-17T12:36:34.939Z,1591.88
2022-10-17T12:37:34.878Z,1653.75
2022-10-17T12:38:34.817Z,1501.88
2022-10-17T12:39:34.758Z,1428.75
2022-10-17T12:40:34.694Z,1366.88
2022-10-17T12:41:34.633Z,1310.63
2022-10-17T12:42:34.571Z,1248.75
2022-10-17T12:43:34.553Z,1265.63
2022-10-17T12:44:35.048Z,1186.88
2022-10-17T12:45:34.385Z,1378.13
2022-10-17T12:46:36.943Z,1479.38
2022-10-17T12:47:34.260Z,1490.63
2022-10-17T12:48:34.196Z,1490.63
2022-10-17T12:50:16.647Z,1530.00
2022-10-17T12:51:34.376Z,1603.13
2022-10-17T12:52:16.513Z,1518.75
2022-10-17T12:53:19.165Z,1614.38
2022-10-17T12:54:16.400Z,1665.00
2022-10-17T12:55:16.319Z,1653.75
2022-10-17T12:56:18.876Z,1541.25
2022-10-17T12:57:16.193Z,1665.00
2022-10-17T12:58:16.134Z,1687.50
2022-10-17T12:59:16.069Z,1608.75
2022-10-17T13:00:16.013Z,1687.50
2022-10-17T13:01:24.283Z,1631.25
2022-10-17T13:02:15.885Z,1620.00
2022-10-17T13:03:15.825Z,1524.38
2022-10-17T13:04:15.795Z,1524.38
2022-10-17T13:05:15.737Z,1513.13
2022-10-17T13:06:15.733Z,1591.88
2022-10-17T13:07:15.676Z,1501.88
2022-10-17T13:08:15.513Z,1490.63
2022-10-17T13:09:15.704Z,1355.63
2022-10-17T13:10:15.517Z,1406.25
2022-10-17T13:11:15.329Z,1417.50
2022-10-17T13:12:15.262Z,1355.63
2022-10-17T13:13:15.238Z,1125.00
2022-10-17T13:16:40.065Z,483.75
2022-10-17T13:17:43.082Z,495.00
2022-10-17T13:18:39.941Z,455.63
2022-10-17T13:19:39.899Z,343.13
2022-10-17T13:20:39.813Z,315.00
2022-10-17T13:21:39.769Z,298.13
2022-10-17T13:22:39.785Z,309.38
2022-10-17T13:23:39.621Z,326.25
2022-10-17T13:24:39.560Z,371.25
2022-10-17T13:25:39.754Z,478.13
2022-10-17T13:26:39.427Z,466.88
2022-10-17T13:27:39.361Z,382.50
2022-10-17T13:28:39.806Z,315.00
2022-10-17T13:29:39.229Z,275.63
2022-10-17T13:30:39.162Z,337.50
2022-10-17T13:31:39.097Z,360.00
2022-10-17T13:33:21.520Z,270.00
2022-10-17T13:34:21.458Z,270.00
2022-10-17T13:35:27.820Z,264.38
2022-10-17T13:36:21.365Z,258.75
2022-10-17T13:37:21.270Z,253.13
2022-10-17T13:38:21.184Z,258.75
2022-10-17T13:39:32.435Z,275.63
2022-10-17T13:40:44.128Z,264.38
2022-10-17T13:41:35.222Z,258.75
2022-10-17T13:42:21.213Z,247.50
2022-10-17T13:43:20.839Z,258.75
2022-10-17T13:45:03.261Z,247.50
2022-10-17T13:46:19.284Z,241.88
2022-10-17T13:47:03.119Z,247.50
2022-10-17T13:48:03.053Z,298.13
2022-10-17T13:49:02.982Z,281.25
2022-10-17T13:50:02.914Z,258.75
2022-10-17T13:51:03.925Z,298.13
2022-10-17T13:52:02.775Z,382.50
2022-10-17T13:53:02.724Z,444.38
2022-10-17T13:54:05.254Z,320.63
2022-10-17T13:55:02.579Z,253.13
2022-10-17T13:56:26.739Z,258.75
2022-10-17T13:57:02.424Z,270.00
2022-10-17T13:58:02.597Z,270.00
2022-10-17T14:00:02.217Z,264.38
2022-10-17T14:01:02.185Z,270.00
2022-10-17T14:02:02.078Z,264.38
2022-10-17T14:03:02.006Z,258.75
2022-10-17T14:04:08.855Z,258.75
2022-10-17T14:05:18.984Z,258.75
2022-10-17T14:06:01.885Z,258.75
2022-10-17T14:07:01.769Z,298.13
2022-10-17T14:08:22.799Z,365.63
2022-10-17T14:09:01.820Z,466.88
2022-10-17T14:10:01.548Z,641.25
2022-10-17T14:11:01.446Z,787.50
2022-10-17T14:12:01.456Z,905.63
2022-10-17T14:13:01.337Z,990.00
2022-10-17T14:14:01.233Z,832.50
2022-10-17T14:15:16.264Z,714.38
2022-10-17T14:16:01.092Z,601.88
2022-10-17T14:17:01.022Z,382.50
2022-10-17T14:18:05.453Z,303.75
2022-10-17T14:19:00.887Z,303.75
2022-10-17T14:20:26.267Z,292.50
2022-10-17T14:22:00.673Z,281.25
2022-10-17T14:23:23.448Z,270.00
2022-10-17T14:24:00.535Z,264.38
2022-10-17T14:25:02.643Z,258.75
2022-10-17T14:26:00.397Z,258.75
2022-10-17T14:27:00.327Z,247.50
2022-10-17T14:29:00.319Z,236.25
2022-10-17T14:30:00.151Z,236.25
2022-10-17T14:31:00.080Z,230.63
2022-10-17T14:31:59.979Z,230.63
2022-10-17T14:33:00.359Z,225.00
2022-10-17T14:33:59.839Z,225.00
2022-10-17T14:35:17.810Z,219.38
2022-10-17T14:37:59.554Z,208.13
2022-10-17T14:38:59.726Z,208.13
2022-10-17T14:40:42.015Z,196.88
2022-10-17T14:41:43.491Z,196.88
2022-10-17T14:42:41.763Z,191.25
2022-10-17T14:43:41.691Z,191.25
2022-10-17T14:44:41.620Z,185.63
2022-10-17T14:45:41.549Z,185.63
2022-10-17T14:47:44.037Z,180.00
2022-10-17T14:48:41.338Z,180.00
2022-10-17T14:49:41.265Z,174.38
2022-10-17T14:51:56.598Z,174.38
2022-10-17T14:52:41.053Z,168.75
2022-10-17T14:53:40.982Z,163.13
2022-10-17T14:54:40.949Z,157.50
2022-10-17T14:55:40.877Z,151.88
2022-10-17T14:56:40.829Z,146.25
2022-10-17T14:57:40.704Z,146.25
2022-10-17T15:00:40.522Z,135.00
2022-10-17T15:01:40.812Z,135.00
2022-10-17T15:02:40.489Z,135.00
2022-10-17T15:03:40.343Z,140.63
2022-10-17T15:04:40.195Z,140.63
2022-10-17T15:05:40.124Z,140.63
2022-10-17T15:06:40.052Z,146.25
2022-10-17T15:07:39.981Z,146.25
2022-10-17T15:08:39.970Z,146.25
2022-10-17T15:09:39.842Z,146.25
2022-10-17T15:10:39.765Z,146.25
2022-10-17T15:11:39.694Z,146.25
2022-10-17T15:12:51.995Z,146.25
2022-10-17T15:13:44.668Z,146.25
2022-10-17T15:14:39.477Z,146.25
2022-10-17T15:15:39.407Z,151.88
2022-10-17T15:16:39.340Z,151.88
2022-10-17T15:17:39.330Z,157.50
2022-10-17T15:18:39.189Z,163.13
2022-10-17T15:19:39.118Z,163.13
2022-10-17T15:20:39.046Z,157.50
2022-10-17T15:21:42.086Z,151.88
2022-10-17T15:22:38.937Z,151.88
2022-10-17T15:23:38.866Z,146.25
2022-10-17T15:24:38.795Z,146.25
2022-10-17T15:25:38.923Z,146.25
2022-10-17T15:27:38.577Z,146.25
2022-10-17T15:28:38.592Z,146.25
2022-10-17T15:33:38.348Z,129.38
2022-10-17T15:34:38.886Z,129.38
2022-10-17T15:35:38.711Z,129.38
2022-10-17T15:36:38.397Z,123.75
2022-10-17T15:44:37.330Z,112.50
2022-10-17T15:47:37.092Z,90.00
2022-10-17T15:48:37.019Z,90.00
2022-10-17T15:49:37.148Z,84.38
2022-10-17T15:50:36.874Z,84.38
2022-10-17T15:51:36.799Z,78.75
2022-10-17T15:52:36.977Z,73.13
2022-10-17T15:53:36.656Z,67.50
2022-10-17T15:54:36.584Z,67.50
2022-10-17T15:55:36.509Z,61.88
2022-10-17T16:02:07.786Z,45.00
2022-10-17T16:03:07.809Z,39.38
2022-10-17T16:04:07.621Z,39.38
2022-10-17T16:05:07.548Z,33.75
2022-10-17T16:06:10.755Z,33.75
2022-10-17T16:07:07.401Z,33.75
2022-10-17T16:08:07.332Z,28.13
2022-10-17T16:09:07.256Z,28.13
2022-10-17T16:10:09.801Z,28.13
2022-10-17T16:11:07.110Z,22.50
2022-10-17T16:46:20.506Z,0.00
2022-10-17T16:47:20.411Z,0.00
2022-10-17T16:48:20.532Z,0.00
2022-10-17T16:49:20.264Z,0.00
2022-10-17T16:50:20.187Z,0.00
2022-10-17T16:51:20.163Z,0.00
2022-10-17T16:52:20.038Z,0.00
2022-10-17T16:53:19.962Z,0.00
2022-10-17T16:54:19.886Z,0.00
2022-10-17T16:55:19.814Z,0.00
2022-10-17T16:56:19.738Z,0.00
2022-10-17T16:57:19.661Z,0.00
2022-10-17T16:58:19.588Z,0.00
2022-10-17T16:59:19.522Z,0.00
2022-10-17T17:00:19.465Z,0.00
2022-10-17T17:01:19.449Z,0.00
2022-10-17T17:02:21.296Z,0.00
2022-10-17T17:03:19.214Z,0.00
2022-10-17T17:04:19.139Z,0.00
2022-10-17T17:05:19.066Z,0.00
2022-10-17T17:06:19.233Z,0.00
2022-10-17T17:07:18.917Z,0.00
2022-10-17T17:08:18.840Z,0.00
2022-10-17T17:09:18.764Z,0.00
2022-10-17T17:10:18.690Z,0.00
2022-10-17T17:11:18.615Z,0.00
2022-10-17T17:12:18.541Z,0.00
2022-10-17T17:13:18.462Z,0.00
2022-10-17T17:14:18.392Z,0.00
2022-10-17T17:15:18.317Z,0.00
2022-10-17T17:16:18.238Z,0.00
2022-10-17T17:17:30.257Z,0.00
2022-10-17T17:18:18.108Z,0.00
2022-10-17T17:19:18.016Z,0.00
2022-10-17T17:20:17.943Z,0.00
2022-10-17T17:21:17.867Z,0.00
2022-10-17T17:22:17.791Z,0.00
2022-10-17T17:23:17.714Z,0.00
2022-10-17T17:24:17.638Z,0.00
2022-10-17T17:25:17.565Z,0.00
2022-10-17T17:26:17.488Z,0.00
2022-10-17T17:27:17.435Z,0.00
2022-10-17T17:28:17.404Z,0.00
2022-10-17T17:29:17.314Z,0.00
2022-10-17T17:30:17.187Z,0.00
2022-10-17T17:31:17.114Z,0.00
2022-10-17T17:32:17.037Z,0.00
2022-10-17T17:33:16.963Z,0.00
2022-10-17T17:34:18.203Z,0.00
2022-10-17T17:35:16.820Z,0.00
2022-10-17T17:36:16.939Z,0.00
2022-10-17T17:37:16.667Z,0.00
2022-10-17T17:38:16.583Z,0.00
2022-10-17T17:39:16.516Z,0.00
2022-10-17T17:40:16.435Z,0.00
2022-10-17T17:41:16.359Z,0.00
2022-10-17T17:42:16.283Z,0.00
2022-10-17T17:43:16.210Z,0.00
2022-10-17T17:44:16.988Z,0.00
2022-10-17T17:45:16.059Z,0.00
2022-10-17T17:46:15.985Z,0.00
2022-10-17T17:47:16.110Z,0.00
2022-10-17T19:11:30.010Z,0.00
2022-10-17T19:12:29.914Z,0.00
2022-10-17T19:13:29.838Z,0.00
2022-10-17T19:14:29.763Z,0.00
2022-10-17T19:15:29.687Z,0.00
2022-10-17T19:16:29.612Z,0.00
2022-10-17T19:17:29.853Z,0.00
2022-10-17T19:18:29.461Z,0.00
2022-10-17T19:19:29.384Z,0.00
2022-10-17T19:20:29.310Z,0.00
2022-10-17T19:21:29.237Z,0.00
2022-10-17T19:22:29.160Z,0.00
2022-10-17T19:23:29.084Z,0.00
2022-10-17T19:24:29.011Z,0.00
2022-10-17T19:25:28.933Z,0.00
2022-10-17T19:26:28.859Z,0.00
2022-10-17T19:27:29.205Z,0.00
2022-10-17T19:28:28.726Z,0.00
2022-10-17T19:29:28.633Z,0.00
2022-10-17T19:30:28.565Z,0.00
2022-10-17T19:31:28.486Z,0.00
2022-10-17T19:32:28.531Z,0.00
2022-10-17T19:34:28.257Z,0.00
2022-10-17T19:35:28.432Z,0.00
2022-10-17T19:36:32.273Z,0.00
2022-10-17T19:37:28.363Z,0.00
2022-10-17T19:38:27.956Z,0.00
2022-10-17T19:39:27.878Z,0.00
2022-10-17T19:40:27.807Z,0.00
2022-10-17T19:41:27.729Z,0.00
2022-10-17T19:42:27.781Z,0.00
2022-10-17T19:43:27.600Z,0.00
2022-10-17T19:44:27.505Z,0.00
2022-10-17T19:45:27.427Z,0.00
2022-10-17T19:46:27.357Z,0.00
2022-10-17T19:47:27.278Z,0.00
2022-10-17T19:48:27.219Z,0.00
2022-10-17T19:49:27.125Z,0.00
2022-10-17T19:50:27.052Z,0.00
2022-10-17T19:51:26.980Z,0.00
2022-10-17T19:52:27.011Z,0.00
2022-10-17T19:53:26.826Z,0.00
2022-10-17T19:54:26.749Z,0.00
2022-10-17T19:55:26.674Z,0.00
2022-10-17T19:56:26.603Z,0.00
2022-10-17T19:57:26.522Z,0.00
2022-10-17T19:58:26.449Z,0.00
2022-10-17T19:59:26.412Z,0.00
2022-10-17T20:00:28.915Z,0.00
2022-10-17T20:01:26.315Z,0.00
2022-10-17T20:02:26.144Z,0.00
2022-10-17T20:03:26.070Z,0.00
2022-10-17T20:04:25.997Z,0.00
2022-10-17T20:05:28.038Z,0.00
2022-10-17T20:06:25.844Z,0.00
2022-10-17T20:07:25.768Z,0.00
2022-10-17T20:09:25.616Z,0.00
2022-10-17T20:10:25.542Z,0.00
2022-10-17T20:11:25.465Z,0.00
2022-10-17T20:12:25.404Z,0.00
2022-10-17T20:13:25.315Z,0.00
2022-10-17T20:14:25.245Z,0.00
2022-10-17T20:15:25.187Z,0.00
2022-10-17T20:16:25.089Z,0.00
2022-10-17T20:17:25.138Z,0.00
2022-10-17T20:18:24.941Z,0.00
2022-10-17T20:19:24.862Z,0.00
2022-10-17T20:20:24.835Z,0.00
2022-10-17T20:21:24.714Z,0.00
2022-10-17T20:22:24.636Z,0.00
2022-10-17T20:23:24.556Z,0.00
2022-10-17T20:24:24.485Z,0.00
2022-10-17T20:25:24.450Z,0.00
2022-10-17T20:26:33.639Z,0.00
2022-10-17T20:27:27.533Z,0.00
2022-10-17T20:28:24.243Z,0.00
2022-10-17T20:29:24.138Z,0.00
2022-10-17T20:30:24.031Z,0.00
2022-10-17T20:31:23.972Z,0.00
2022-10-17T20:32:23.881Z,0.00
2022-10-17T20:33:25.459Z,0.00
2022-10-17T20:34:23.728Z,0.00
2022-10-17T20:35:23.650Z,0.00
2022-10-17T20:36:23.584Z,0.00
2022-10-17T20:37:23.502Z,0.00
2022-10-17T20:38:23.426Z,0.00
2022-10-17T20:39:23.349Z,0.00
2022-10-17T20:40:34.819Z,0.00
2022-10-17T20:41:23.199Z,0.00
2022-10-17T20:42:23.124Z,0.00
2022-10-17T20:43:23.047Z,0.00
2022-10-17T20:44:22.975Z,0.00
2022-10-17T20:45:37.364Z,0.00
2022-10-17T20:46:35.538Z,0.00
2022-10-17T20:47:33.098Z,0.00
2022-10-17T20:48:22.674Z,0.00
2022-10-17T20:49:22.592Z,0.00
2022-10-17T20:50:22.520Z,0.00
2022-10-17T20:51:22.441Z,0.00
2022-10-17T20:52:22.370Z,0.00
2022-10-17T20:53:36.673Z,0.00
2022-10-17T20:54:22.224Z,0.00
2022-10-17T20:55:22.143Z,0.00
2022-10-17T20:56:22.065Z,0.00
2022-10-17T20:57:21.990Z,0.00
2022-10-17T20:58:21.915Z,0.00
2022-10-17T20:59:21.836Z,0.00
2022-10-17T21:00:21.763Z,0.00
2022-10-17T21:01:21.743Z,0.00
2022-10-17T21:02:21.611Z,0.00
2022-10-17T21:03:21.555Z,0.00
2022-10-17T21:04:44.700Z,0.00
2022-10-17T21:05:21.387Z,0.00
2022-10-17T21:06:21.321Z,0.00
2022-10-17T21:07:21.232Z,0.00
2022-10-17T21:20:07.654Z,0.00
2022-10-17T21:21:07.555Z,0.00
2022-10-17T21:22:07.476Z,0.00
2022-10-17T21:23:07.424Z,0.00
2022-10-17T21:24:07.326Z,0.00
2022-10-17T21:25:07.250Z,0.00
2022-10-17T21:33:42.296Z,0.00
2022-10-17T21:57:45.797Z,0.00
2022-10-17T22:49:24.185Z,0.00
2022-10-17T22:50:24.087Z,0.00
2022-10-17T22:52:23.939Z,0.00
2022-10-17T22:53:23.858Z,0.00
2022-10-17T22:54:23.785Z,0.00
2022-10-17T22:55:23.706Z,0.00
2022-10-17T22:56:23.646Z,0.00
2022-10-17T22:57:23.553Z,0.00
2022-10-17T22:58:23.476Z,0.00
2022-10-17T22:59:23.400Z,0.00
2022-10-17T23:00:23.375Z,0.00
2022-10-17T23:01:23.423Z,0.00
2022-10-17T23:02:23.170Z,0.00
2022-10-17T23:03:23.092Z,0.00
2022-10-17T23:04:23.019Z,0.00
2022-10-17T23:05:22.958Z,0.00
2022-10-17T23:06:22.864Z,0.00
2022-10-17T23:07:22.790Z,0.00
2022-10-17T23:08:22.711Z,0.00
2022-10-17T23:09:22.683Z,0.00
2022-10-17T23:10:22.558Z,0.00
2022-10-17T23:11:22.532Z,0.00
2022-10-17T23:12:22.406Z,0.00
2022-10-17T23:13:22.331Z,0.00
2022-10-17T23:14:22.254Z,0.00
2022-10-17T23:15:22.176Z,0.00
2022-10-17T23:16:22.100Z,0.00
2022-10-17T23:17:22.025Z,0.00
2022-10-17T23:19:04.429Z,0.00
2022-10-17T23:20:04.355Z,0.00
2022-10-17T23:21:04.296Z,0.00
2022-10-17T23:22:04.204Z,0.00
2022-10-17T23:23:04.128Z,0.00
2022-10-17T23:24:04.050Z,0.00
2022-10-17T23:25:03.976Z,0.00
2022-10-17T23:26:03.895Z,0.00
2022-10-17T23:27:03.968Z,0.00
2022-10-17T23:28:03.743Z,0.00
2022-10-17T23:29:03.726Z,0.00
2022-10-17T23:30:03.597Z,0.00
2022-10-17T23:31:03.512Z,0.00
2022-10-17T23:32:03.439Z,0.00
2022-10-17T23:33:03.360Z,0.00
2022-10-17T23:34:03.283Z,0.00
2022-10-17T23:35:03.229Z,0.00
2022-10-17T23:36:03.136Z,0.00
2022-10-17T23:37:03.089Z,0.00
2022-10-17T23:38:02.988Z,0.00
2022-10-17T23:39:02.901Z,0.00
2022-10-17T23:40:02.826Z,0.00
2022-10-17T23:41:02.749Z,0.00
2022-10-17T23:42:02.682Z,0.00
2022-10-17T23:43:02.603Z,0.00
2022-10-17T23:44:02.519Z,0.00
2022-10-17T23:45:02.442Z,0.00
2022-10-17T23:46:02.370Z,0.00
2022-10-17T23:47:02.295Z,0.00
2022-10-17T23:48:02.216Z,0.00
2022-10-17T23:49:02.136Z,0.00
2022-10-17T23:50:02.058Z,0.00
2022-10-17T23:51:01.981Z,0.00
2022-10-17T23:52:01.908Z,0.00
2022-10-17T23:53:01.849Z,0.00
2022-10-17T23:54:01.756Z,0.00
2022-10-17T23:55:01.675Z,0.00
2022-10-17T23:56:01.600Z,0.00
2022-10-17T23:57:01.522Z,0.00
2022-10-17T23:58:01.447Z,0.00
2022-10-17T23:59:01.368Z,0.00
